Time;durP1;ratioP1;P1;durP2;ratioP2;P2;SDS_P1;SDS_P2;PMS_P1;PMS_P2;Temp;Humidity;BMP_temperature;BMP_pressure;BME280_temperature;BME280_humidity;BME280_pressure;Samples;Min_cycle;Max_cycle;Signal;HPM_P1;HPM_P2
2020/12/05 00:01:21;;;;;;;18.25;11.73;;;-1.60;99.90;;;;;;4209376;28;20052;-73
2020/12/05 00:03:22;;;;;;;17.63;11.30;;;-1.60;99.90;;;;;;4193095;28;20051;-73
2020/12/05 00:05:23;;;;;;;20.52;10.65;;;-1.60;99.90;;;;;;4193598;28;20051;-73
2020/12/05 00:07:23;;;;;;;21.30;11.98;;;-1.70;99.90;;;;;;4214635;28;20081;-73
2020/12/05 00:09:24;;;;;;;24.73;13.38;;;-1.60;99.90;;;;;;4214483;28;20157;-73
2020/12/05 00:11:26;;;;;;;19.92;11.90;;;-1.50;99.90;;;;;;4212760;28;20129;-73
2020/12/05 00:13:27;;;;;;;20.13;11.48;;;-1.50;99.90;;;;;;4215872;28;20051;-73
2020/12/05 00:15:27;;;;;;;17.83;11.80;;;-1.50;99.90;;;;;;4215433;28;20031;-73
2020/12/05 00:17:31;;;;;;;20.33;11.05;;;-1.50;99.90;;;;;;4215607;28;20028;-73
2020/12/05 00:19:31;;;;;;;17.88;11.38;;;-1.50;99.90;;;;;;4215911;28;20056;-71
2020/12/05 00:21:32;;;;;;;17.27;10.75;;;-1.50;99.90;;;;;;4215642;28;20028;-73
2020/12/05 00:23:33;;;;;;;18.00;11.77;;;-1.50;99.90;;;;;;4197741;28;20036;-74
2020/12/05 00:25:33;;;;;;;16.48;11.00;;;-1.50;99.90;;;;;;4215348;28;20078;-71
2020/12/05 00:27:34;;;;;;;19.23;11.73;;;-1.50;99.90;;;;;;4195127;28;20047;-73
2020/12/05 00:29:35;;;;;;;18.40;9.85;;;-1.30;99.90;;;;;;4196606;28;20033;-73
2020/12/05 00:31:35;;;;;;;20.15;11.80;;;-1.30;99.90;;;;;;4197384;28;20115;-73
2020/12/05 00:33:36;;;;;;;19.13;11.48;;;-1.30;99.90;;;;;;4215169;28;20084;-73
2020/12/05 00:35:36;;;;;;;15.45;10.77;;;-1.30;99.90;;;;;;4215509;28;20032;-73
2020/12/05 00:37:37;;;;;;;16.30;10.23;;;-1.40;99.90;;;;;;4209711;28;20025;-73
2020/12/05 00:39:37;;;;;;;20.13;12.00;;;-1.50;99.90;;;;;;4215494;28;20081;-74
2020/12/05 00:41:38;;;;;;;17.73;10.45;;;-1.50;99.90;;;;;;4197227;28;20058;-73
2020/12/05 00:43:39;;;;;;;21.85;10.43;;;-1.50;99.90;;;;;;4215368;28;20032;-74
2020/12/05 00:45:39;;;;;;;13.60;10.15;;;-1.50;99.90;;;;;;4215094;28;20031;-73
2020/12/05 00:47:40;;;;;;;15.48;10.55;;;-1.40;99.90;;;;;;4215123;28;20058;-73
2020/12/05 00:49:40;;;;;;;19.02;11.43;;;-1.30;99.90;;;;;;4215395;28;20020;-74
2020/12/05 00:51:41;;;;;;;19.13;12.38;;;-1.30;99.90;;;;;;4197106;28;20116;-73
2020/12/05 00:53:42;;;;;;;23.70;11.95;;;-1.20;99.90;;;;;;4215265;28;20383;-71
2020/12/05 00:55:45;;;;;;;25.55;12.55;;;-1.30;99.90;;;;;;4214058;28;20032;-73
2020/12/05 00:57:46;;;;;;;15.68;10.48;;;-1.40;99.90;;;;;;4211034;28;20031;-73
2020/12/05 00:59:47;;;;;;;17.80;10.68;;;-1.40;99.90;;;;;;4215043;28;20028;-72
2020/12/05 01:01:55;;;;;;;21.23;11.60;;;-1.40;99.90;;;;;;4213675;28;20021;-73
2020/12/05 01:03:56;;;;;;;18.55;10.30;;;-1.40;99.90;;;;;;4203225;28;20028;-72
2020/12/05 01:05:57;;;;;;;21.45;10.45;;;-1.50;99.90;;;;;;4214930;28;20046;-71
2020/12/05 01:07:57;;;;;;;19.08;10.93;;;-1.60;99.90;;;;;;4214721;28;20051;-72
2020/12/05 01:09:58;;;;;;;19.30;11.05;;;-1.60;99.90;;;;;;4214934;28;20040;-73
2020/12/05 01:11:58;;;;;;;18.17;12.13;;;-1.60;99.90;;;;;;4213391;28;20028;-73
2020/12/05 01:13:59;;;;;;;15.35;10.55;;;-1.70;99.90;;;;;;4214901;28;20143;-71
2020/12/05 01:15:59;;;;;;;20.55;10.98;;;-1.70;99.90;;;;;;4196937;28;20086;-73
2020/12/05 01:18:00;;;;;;;25.25;11.75;;;-1.80;99.90;;;;;;4214885;28;20024;-74
2020/12/05 01:20:03;;;;;;;17.42;8.88;;;-1.80;99.90;;;;;;4196435;28;20478;-74
2020/12/05 01:22:03;;;;;;;18.47;10.47;;;-1.90;99.90;;;;;;4213913;28;20016;-73
2020/12/05 01:24:04;;;;;;;15.40;9.02;;;-1.90;99.90;;;;;;4213215;28;20031;-72
2020/12/05 01:26:05;;;;;;;19.10;10.00;;;-1.80;99.90;;;;;;4211905;28;20024;-73
2020/12/05 01:28:05;;;;;;;16.92;9.90;;;-1.80;99.90;;;;;;4206219;28;20422;-73
2020/12/05 01:30:06;;;;;;;24.95;12.52;;;-1.80;99.90;;;;;;4189063;28;20028;-73
2020/12/05 01:32:07;;;;;;;18.77;10.35;;;-1.90;99.90;;;;;;4212769;28;20016;-73
2020/12/05 01:34:07;;;;;;;17.65;9.35;;;-1.90;99.90;;;;;;4212776;28;20024;-73
2020/12/05 01:36:08;;;;;;;17.90;10.48;;;-1.90;99.90;;;;;;4212642;28;20034;-74
2020/12/05 01:38:08;;;;;;;16.25;10.00;;;-1.90;99.90;;;;;;4207503;28;20387;-73
2020/12/05 01:40:09;;;;;;;14.95;9.63;;;-1.80;99.90;;;;;;4211322;28;20024;-73
2020/12/05 01:42:09;;;;;;;19.58;9.77;;;-1.80;99.90;;;;;;4212475;28;20044;-73
2020/12/05 01:44:10;;;;;;;16.58;10.32;;;-1.90;99.90;;;;;;4212477;28;20032;-73
2020/12/05 01:46:30;;;;;;;14.52;9.38;;;-2.00;99.90;;;;;;4212995;28;20020;-73
2020/12/05 01:48:31;;;;;;;18.45;10.73;;;-2.00;99.90;;;;;;4195761;28;20868;-73
2020/12/05 01:50:32;;;;;;;15.50;9.48;;;-2.10;99.90;;;;;;4200835;28;20025;-71
2020/12/05 01:52:36;;;;;;;17.10;9.65;;;-2.10;99.90;;;;;;4194477;28;20111;-72
2020/12/05 01:54:37;;;;;;;19.35;11.50;;;-2.10;99.90;;;;;;4182180;28;20025;-74
2020/12/05 01:56:41;;;;;;;18.05;11.70;;;-2.10;99.90;;;;;;4214152;28;20032;-73
2020/12/05 01:58:42;;;;;;;23.27;10.93;;;-2.10;99.90;;;;;;4212961;28;20260;-73
2020/12/05 02:00:44;;;;;;;21.10;11.18;;;-2.10;99.90;;;;;;4199781;28;20082;-73
2020/12/05 02:02:45;;;;;;;15.60;10.43;;;-2.00;99.90;;;;;;4213963;28;20024;-73
2020/12/05 02:04:51;;;;;;;20.27;11.48;;;-2.00;99.90;;;;;;4196058;28;20118;-74
2020/12/05 02:07:20;;;;;;;19.88;10.45;;;-1.90;99.90;;;;;;4204025;28;20025;-73
2020/12/05 02:09:38;;;;;;;20.33;10.65;;;-1.90;99.90;;;;;;4212832;28;20038;-73
2020/12/05 02:11:44;;;;;;;20.80;10.70;;;-1.80;99.90;;;;;;4213762;28;20016;-73
2020/12/05 02:13:47;;;;;;;15.45;10.02;;;-1.90;99.90;;;;;;4214059;28;20078;-71
2020/12/05 02:15:49;;;;;;;17.58;10.63;;;-1.80;99.90;;;;;;4212947;28;20499;-71
2020/12/05 02:18:00;;;;;;;18.52;11.00;;;;;;;;;;4212472;28;20020;-73
2020/12/05 02:20:03;;;;;;;20.90;11.65;;;-1.80;99.90;;;;;;4207638;28;20118;-72
2020/12/05 02:22:05;;;;;;;19.42;11.07;;;;;;;;;;4195579;28;20021;-74
2020/12/05 02:24:05;;;;;;;18.48;10.35;;;-1.70;99.90;;;;;;4197211;28;20025;-71
2020/12/05 02:26:09;;;;;;;19.95;12.25;;;-1.70;99.90;;;;;;4210732;28;20348;-71
2020/12/05 02:28:11;;;;;;;19.17;10.82;;;-1.80;99.90;;;;;;4190445;28;20484;-72
2020/12/05 02:30:12;;;;;;;20.95;11.50;;;-1.80;99.90;;;;;;4187904;28;20025;-72
2020/12/05 02:32:13;;;;;;;19.45;11.20;;;-1.80;99.90;;;;;;4186845;28;20021;-74
2020/12/05 02:34:13;;;;;;;19.33;10.32;;;-1.90;99.90;;;;;;4202835;28;20099;-71
2020/12/05 02:36:14;;;;;;;20.88;9.98;;;-1.90;99.90;;;;;;4190619;28;20025;-72
2020/12/05 02:38:34;;;;;;;19.25;10.15;;;-2.00;99.90;;;;;;4198781;28;20027;-72
2020/12/05 02:40:35;;;;;;;16.38;10.80;;;-2.00;99.90;;;;;;4183862;28;20103;-71
2020/12/05 02:42:36;;;;;;;18.20;10.43;;;-1.90;99.90;;;;;;4211734;28;20040;-72
2020/12/05 02:44:51;;;;;;;15.23;9.88;;;-1.90;99.90;;;;;;4211906;28;20036;-71
2020/12/05 02:46:54;;;;;;;19.20;11.38;;;-1.90;99.90;;;;;;4210557;28;20035;-71
2020/12/05 02:48:55;;;;;;;;;;;-1.90;99.90;;;;;;4212471;28;20816;-73
2020/12/05 02:50:56;;;;;;;19.67;10.20;;;-2.00;99.90;;;;;;4211914;28;20056;-73
2020/12/05 02:52:56;;;;;;;20.55;10.30;;;-2.00;99.90;;;;;;4211714;28;20055;-71
2020/12/05 02:54:57;;;;;;;22.50;12.23;;;-1.90;99.90;;;;;;4180656;28;20095;-73
2020/12/05 02:56:59;;;;;;;20.63;12.63;;;-1.80;99.90;;;;;;4192529;28;20017;-73
2020/12/05 02:59:00;;;;;;;21.48;11.38;;;-1.70;99.90;;;;;;4194789;28;20028;-73
2020/12/05 03:01:00;;;;;;;19.83;12.43;;;-1.70;99.90;;;;;;4183277;28;20071;-73
2020/12/05 03:03:02;;;;;;;15.90;9.90;;;-1.70;99.90;;;;;;4211438;28;20024;-74
2020/12/05 03:05:03;;;;;;;20.70;11.45;;;-1.80;99.90;;;;;;4211513;28;20032;-72
2020/12/05 03:07:05;;;;;;;19.63;11.02;;;-1.80;99.90;;;;;;4212025;28;20028;-73
2020/12/05 03:09:08;;;;;;;20.02;12.48;;;-1.70;99.90;;;;;;4213132;28;20016;-71
2020/12/05 03:11:09;;;;;;;24.58;11.75;;;-1.70;99.90;;;;;;4189964;28;20080;-72
2020/12/05 03:13:10;;;;;;;20.33;11.77;;;-1.70;99.90;;;;;;4204466;28;20502;-73
2020/12/05 03:15:10;;;;;;;23.52;13.13;;;-1.60;99.90;;;;;;4184421;28;20048;-73
2020/12/05 03:17:11;;;;;;;21.73;12.95;;;-1.60;99.90;;;;;;4191437;28;20029;-73
2020/12/05 03:19:11;;;;;;;20.13;12.48;;;-1.60;99.90;;;;;;4211992;28;20383;-73
2020/12/05 03:21:12;;;;;;;21.75;13.00;;;-1.60;99.90;;;;;;4212976;28;20043;-74
2020/12/05 03:23:12;;;;;;;26.85;13.45;;;-1.50;99.90;;;;;;4195278;28;20598;-73
2020/12/05 03:25:13;;;;;;;21.08;12.10;;;-1.50;99.90;;;;;;4194977;28;20115;-73
2020/12/05 03:27:14;;;;;;;22.27;12.15;;;-1.50;99.90;;;;;;4212930;28;20484;-73
2020/12/05 03:29:14;;;;;;;27.65;13.00;;;-1.40;99.90;;;;;;4196698;28;20028;-73
2020/12/05 03:31:29;;;;;;;21.27;12.98;;;-1.30;99.90;;;;;;4212802;28;20028;-73
2020/12/05 03:33:31;;;;;;;24.58;13.60;;;-1.20;99.90;;;;;;4213004;28;20077;-73
2020/12/05 03:35:32;;;;;;;23.42;13.18;;;-1.20;99.90;;;;;;4195101;28;20024;-73
2020/12/05 03:37:33;;;;;;;24.33;14.43;;;-1.10;99.90;;;;;;4194971;28;20099;-73
2020/12/05 03:39:33;;;;;;;18.85;12.32;;;-1.20;99.90;;;;;;4194835;28;20039;-73
2020/12/05 03:41:34;;;;;;;24.55;12.63;;;-1.20;99.90;;;;;;4215215;28;20040;-74
2020/12/05 03:43:34;;;;;;;23.20;13.48;;;-1.20;99.90;;;;;;4191953;28;20050;-73
2020/12/05 03:45:35;;;;;;;22.05;12.82;;;-1.20;99.90;;;;;;4208419;28;20036;-74
2020/12/05 03:47:35;;;;;;;21.13;12.32;;;-1.20;99.90;;;;;;4186870;28;20025;-73
2020/12/05 03:49:36;;;;;;;24.10;12.45;;;-1.20;99.90;;;;;;4213611;28;20043;-74
2020/12/05 03:51:37;;;;;;;19.50;11.68;;;-1.20;99.90;;;;;;4197656;28;20099;-73
2020/12/05 03:53:37;;;;;;;20.25;12.50;;;-1.20;99.90;;;;;;4198354;28;20056;-73
2020/12/05 03:55:38;;;;;;;23.60;12.88;;;-1.10;99.90;;;;;;4208361;28;20033;-74
2020/12/05 03:57:38;;;;;;;24.83;14.57;;;-1.10;99.90;;;;;;4188558;28;20523;-73
2020/12/05 03:59:39;;;;;;;28.77;16.30;;;-1.00;99.90;;;;;;4189994;28;20040;-73
2020/12/05 04:01:40;;;;;;;31.90;16.58;;;-0.80;99.90;;;;;;4198188;28;20032;-73
2020/12/05 04:03:40;;;;;;;35.25;17.00;;;-0.60;99.90;;;;;;4201737;28;20383;-73
2020/12/05 04:05:41;;;;;;;26.05;15.40;;;-0.60;99.90;;;;;;4215282;28;20028;-74
2020/12/05 04:07:41;;;;;;;25.30;15.30;;;-0.60;99.90;;;;;;4215944;28;20024;-73
2020/12/05 04:09:42;;;;;;;23.35;13.52;;;-0.70;99.90;;;;;;4216034;28;20028;-73
2020/12/05 04:11:42;;;;;;;24.55;13.40;;;-0.80;99.90;;;;;;4216053;28;20032;-73
2020/12/05 04:13:43;;;;;;;26.75;14.77;;;-0.90;99.90;;;;;;4215683;28;20028;-73
2020/12/05 04:15:44;;;;;;;22.17;13.65;;;-1.00;99.90;;;;;;4215525;28;20101;-73
2020/12/05 04:17:44;;;;;;;24.15;13.48;;;-1.10;99.90;;;;;;4215750;28;20432;-73
2020/12/05 04:19:48;;;;;;;25.58;14.10;;;-1.10;99.90;;;;;;4215678;28;20077;-73
2020/12/05 04:21:49;;;;;;;;;;;-1.20;99.90;;;;;;4216164;28;20385;-73
2020/12/05 04:23:50;;;;;;;21.13;11.35;;;-1.30;99.90;;;;;;4214402;28;20355;-73
2020/12/05 04:25:50;;;;;;;17.80;11.65;;;-1.40;99.90;;;;;;4215482;28;20047;-73
2020/12/05 04:27:51;;;;;;;15.98;10.88;;;-1.40;99.90;;;;;;4211070;28;20115;-73
2020/12/05 04:29:52;;;;;;;18.63;10.88;;;-1.40;99.90;;;;;;4202735;28;20032;-73
2020/12/05 04:31:53;;;;;;;17.80;11.10;;;-1.50;99.90;;;;;;4197338;28;20650;-73
2020/12/05 04:33:53;;;;;;;20.55;10.88;;;-1.60;99.90;;;;;;4197821;28;20453;-73
2020/12/05 04:35:54;;;;;;;19.25;12.98;;;-1.60;99.90;;;;;;4215517;28;20024;-73
2020/12/05 04:37:55;;;;;;;21.13;12.30;;;-1.70;99.90;;;;;;4205377;28;20557;-73
2020/12/05 04:39:55;;;;;;;18.77;10.90;;;-1.70;99.90;;;;;;4202577;28;20073;-73
2020/12/05 04:41:56;;;;;;;21.63;11.93;;;-1.60;99.90;;;;;;4215266;28;20445;-73
2020/12/05 04:43:56;;;;;;;19.58;11.23;;;-1.50;99.90;;;;;;4215361;28;20040;-73
2020/12/05 04:45:57;;;;;;;23.42;12.25;;;-1.50;99.90;;;;;;4197090;28;20040;-71
2020/12/05 04:47:59;;;;;;;16.42;11.38;;;-1.50;99.90;;;;;;4215170;28;20028;-71
2020/12/05 04:50:02;;;;;;;20.95;11.52;;;-1.50;99.90;;;;;;4215295;28;20066;-73
2020/12/05 04:52:24;;;;;;;20.33;12.18;;;-1.50;99.90;;;;;;4213133;28;20044;-73
2020/12/05 04:54:26;;;;;;;23.27;12.80;;;-1.50;99.90;;;;;;4196693;28;20052;-73
2020/12/05 04:56:38;;;;;;;23.27;11.88;;;-1.50;99.90;;;;;;4214941;28;20085;-73
2020/12/05 04:58:46;;;;;;;16.02;11.45;;;-1.50;99.90;;;;;;4210916;28;20028;-73
2020/12/05 05:00:54;;;;;;;20.30;11.38;;;-1.60;99.90;;;;;;4202374;28;20055;-73
2020/12/05 05:02:58;;;;;;;17.52;11.38;;;-1.60;99.90;;;;;;4214943;28;20077;-73
2020/12/05 05:04:59;;;;;;;20.80;10.30;;;-1.60;99.90;;;;;;4215103;28;20047;-73
2020/12/05 05:07:03;;;;;;;21.98;12.55;;;-1.70;99.90;;;;;;4214891;28;20024;-73
2020/12/05 05:09:04;;;;;;;20.17;10.80;;;-1.70;99.90;;;;;;4214397;28;20078;-71
2020/12/05 05:11:06;;;;;;;19.73;10.15;;;-1.80;99.90;;;;;;4196814;28;20064;-73
2020/12/05 05:15:28;;;;;;;14.77;8.88;;;-1.80;99.90;;;;;;4214975;28;20028;-71
2020/12/05 05:17:29;;;;;;;15.55;8.90;;;-1.80;99.90;;;;;;4214530;28;20043;-73
2020/12/05 05:19:33;;;;;;;15.73;10.65;;;-1.90;99.90;;;;;;4214806;28;20115;-73
2020/12/05 05:21:38;;;;;;;18.45;9.95;;;-1.90;99.90;;;;;;4213284;28;20024;-73
2020/12/05 05:23:43;;;;;;;19.30;10.68;;;-1.90;99.90;;;;;;4214641;28;20191;-73
2020/12/05 05:25:54;;;;;;;15.90;9.45;;;-2.00;99.90;;;;;;4214679;28;20032;-73
2020/12/05 05:27:58;;;;;;;16.95;9.90;;;-1.90;99.90;;;;;;4209781;28;20106;-73
2020/12/05 05:30:08;;;;;;;16.98;10.88;;;-1.90;99.90;;;;;;4204323;28;20065;-73
2020/12/05 05:32:19;;;;;;;16.30;9.85;;;-1.90;99.90;;;;;;4213067;28;20104;-73
2020/12/05 05:34:21;;;;;;;13.80;8.93;;;-1.90;99.90;;;;;;4214507;28;20063;-73
2020/12/05 05:36:23;;;;;;;19.02;10.27;;;-1.80;99.90;;;;;;4213294;28;20020;-71
2020/12/05 05:38:24;;;;;;;15.25;10.10;;;-1.80;99.90;;;;;;4200402;28;20467;-74
2020/12/05 05:40:25;;;;;;;15.75;9.90;;;-1.90;99.90;;;;;;4205964;28;20016;-72
2020/12/05 05:42:28;;;;;;;15.32;10.82;;;-1.90;99.90;;;;;;4214491;28;20120;-71
2020/12/05 05:44:28;;;;;;;16.92;10.43;;;-1.90;99.90;;;;;;4214491;28;20111;-71
2020/12/05 05:46:32;;;;;;;15.60;9.77;;;-1.90;99.90;;;;;;4180257;28;20032;-72
2020/12/05 05:48:32;;;;;;;15.93;10.45;;;-1.90;99.90;;;;;;4202844;28;20119;-74
2020/12/05 05:50:35;;;;;;;15.52;10.10;;;-1.90;99.90;;;;;;4188861;28;20087;-73
2020/12/05 05:52:35;;;;;;;15.43;9.95;;;-1.90;99.90;;;;;;4208352;28;20030;-71
2020/12/05 05:54:37;;;;;;;16.23;10.05;;;-2.00;99.90;;;;;;4214233;28;20060;-71
2020/12/05 05:56:37;;;;;;;14.25;10.65;;;-2.00;99.90;;;;;;4180352;28;20029;-73
2020/12/05 05:58:38;;;;;;;18.60;10.52;;;-2.00;99.90;;;;;;4182790;28;20461;-71
2020/12/05 06:00:50;;;;;;;18.73;11.10;;;-1.90;99.90;;;;;;4200435;28;20510;-71
2020/12/05 06:02:57;;;;;;;23.88;12.00;;;-1.90;99.90;;;;;;4213370;28;20052;-74
2020/12/05 06:04:58;;;;;;;24.92;11.55;;;-1.80;99.90;;;;;;4214163;28;20032;-71
2020/12/05 06:07:00;;;;;;;20.50;12.13;;;-1.80;99.90;;;;;;4214239;28;20373;-71
2020/12/05 06:09:03;;;;;;;19.05;12.10;;;-1.70;99.90;;;;;;4213627;28;20023;-73
2020/12/05 06:11:11;;;;;;;18.97;11.40;;;-1.70;99.90;;;;;;4213969;28;20027;-74
2020/12/05 06:13:17;;;;;;;18.83;11.73;;;-1.80;99.90;;;;;;4213265;28;20024;-74
2020/12/05 06:15:18;;;;;;;20.20;11.90;;;-1.80;99.90;;;;;;4212530;28;20031;-74
2020/12/05 06:17:20;;;;;;;19.67;10.88;;;-1.80;99.90;;;;;;4201363;28;20033;-71
2020/12/05 06:19:22;;;;;;;18.92;12.55;;;-1.80;99.90;;;;;;4192421;28;20039;-71
2020/12/05 06:21:31;;;;;;;24.73;11.13;;;-1.80;99.90;;;;;;4181951;28;20079;-74
2020/12/05 06:23:36;;;;;;;15.80;11.55;;;-1.90;99.90;;;;;;4187560;28;20086;-73
2020/12/05 06:25:40;;;;;;;17.65;11.68;;;-1.90;99.90;;;;;;4211602;28;20032;-71
2020/12/05 06:27:46;;;;;;;14.85;9.55;;;-2.00;99.90;;;;;;4209077;28;20115;-71
2020/12/05 06:29:47;;;;;;;18.25;11.10;;;-2.10;99.90;;;;;;4208038;28;20029;-73
2020/12/05 06:31:49;;;;;;;16.10;10.75;;;-2.10;99.90;;;;;;4188888;28;20107;-74
2020/12/05 06:33:49;;;;;;;18.58;11.73;;;-2.10;99.90;;;;;;4193627;28;20021;-73
2020/12/05 06:35:50;;;;;;;15.73;9.60;;;-2.10;99.90;;;;;;4183200;28;20067;-73
2020/12/05 06:37:52;;;;;;;18.27;11.43;;;-2.00;99.90;;;;;;4201301;28;20036;-74
2020/12/05 06:40:03;;;;;;;17.52;11.63;;;-2.00;99.90;;;;;;4184833;28;20033;-71
2020/12/05 06:42:16;;;;;;;19.65;11.43;;;-2.00;99.90;;;;;;4185477;28;20046;-73
2020/12/05 06:44:34;;;;;;;17.77;12.52;;;-2.00;99.90;;;;;;4193608;28;20028;-74
2020/12/05 06:46:55;;;;;;;17.83;10.90;;;-2.00;99.90;;;;;;4183799;28;20055;-72
2020/12/05 06:48:56;;;;;;;18.70;11.60;;;-2.10;99.90;;;;;;4192520;28;20474;-71
2020/12/05 06:50:57;;;;;;;20.30;11.27;;;-2.00;99.90;;;;;;4200875;28;20024;-73
2020/12/05 06:52:57;;;;;;;19.17;11.85;;;-1.90;99.90;;;;;;4191307;28;20028;-73
2020/12/05 06:55:01;;;;;;;22.90;12.65;;;-1.90;99.90;;;;;;4184924;28;20033;-72
2020/12/05 06:57:21;;;;;;;20.25;12.32;;;-1.80;99.90;;;;;;4188819;28;20036;-73
2020/12/05 06:59:24;;;;;;;18.42;11.25;;;-1.70;99.90;;;;;;4184925;28;20090;-73
2020/12/05 07:01:29;;;;;;;18.70;12.05;;;-1.70;99.90;;;;;;4196578;28;20036;-74
2020/12/05 07:03:31;;;;;;;29.42;15.93;;;-1.60;99.90;;;;;;4196414;28;20037;-73
2020/12/05 07:05:36;;;;;;;25.80;15.68;;;-1.50;99.90;;;;;;4194897;28;20093;-73
2020/12/05 07:07:37;;;;;;;31.52;17.55;;;-1.50;99.90;;;;;;4196502;28;20341;-72
2020/12/05 07:09:47;;;;;;;27.75;17.17;;;-1.50;99.90;;;;;;4196496;28;20040;-72
2020/12/05 07:11:47;;;;;;;26.05;15.50;;;-1.40;99.90;;;;;;4196468;28;20032;-71
2020/12/05 07:13:51;;;;;;;24.15;15.77;;;-1.30;99.90;;;;;;4195286;28;20032;-71
2020/12/05 07:16:08;;;;;;;25.92;15.05;;;-1.20;99.90;;;;;;4196221;28;20024;-71
2020/12/05 07:18:10;;;;;;;24.05;14.38;;;-1.10;99.90;;;;;;4195637;28;20028;-71
2020/12/05 07:20:10;;;;;;;28.58;15.57;;;-1.00;99.90;;;;;;4189060;28;20025;-74
2020/12/05 07:22:11;;;;;;;28.73;14.00;;;-1.00;99.90;;;;;;4190373;28;20029;-71
2020/12/05 07:24:11;;;;;;;21.75;13.95;;;-0.90;99.90;;;;;;4196170;28;20059;-74
2020/12/05 07:26:13;;;;;;;25.17;15.05;;;-0.80;99.90;;;;;;4196226;28;20355;-72
2020/12/05 07:28:13;;;;;;;25.15;15.32;;;-0.70;99.90;;;;;;4192002;28;20035;-72
2020/12/05 07:30:14;;;;;;;27.48;16.17;;;-0.60;99.90;;;;;;4196243;28;20048;-73
2020/12/05 07:32:15;;;;;;;27.40;15.68;;;-0.50;99.90;;;;;;4196464;28;20446;-74
2020/12/05 07:34:20;;;;;;;30.67;16.65;;;-0.40;99.90;;;;;;4194984;28;20044;-74
2020/12/05 07:36:20;;;;;;;30.23;17.10;;;-0.40;99.90;;;;;;4178392;28;20029;-71
2020/12/05 07:38:21;;;;;;;27.08;16.15;;;-0.30;99.90;;;;;;4203038;28;20498;-71
2020/12/05 07:40:28;;;;;;;25.08;15.98;;;-0.30;99.90;;;;;;4183239;28;20028;-74
2020/12/05 07:42:33;;;;;;;31.38;16.77;;;-0.30;99.90;;;;;;4195220;28;20033;-73
2020/12/05 07:44:34;;;;;;;28.83;16.45;;;-0.30;99.90;;;;;;4194185;28;20028;-74
2020/12/05 07:46:35;;;;;;;30.83;17.80;;;-0.20;99.90;;;;;;4194863;28;20025;-73
2020/12/05 07:48:36;;;;;;;32.95;18.42;;;-0.20;99.90;;;;;;4189842;28;20064;-73
2020/12/05 07:50:37;;;;;;;29.13;16.55;;;-0.10;99.90;;;;;;4188253;28;20499;-73
2020/12/05 07:52:38;;;;;;;37.75;17.05;;;-0.10;99.90;;;;;;4195597;28;20037;-74
2020/12/05 07:54:48;;;;;;;30.42;15.95;;;-0.10;99.90;;;;;;4196040;28;20031;-73
2020/12/05 07:56:49;;;;;;;30.00;17.63;;;0.00;99.90;;;;;;4200459;28;20082;-74
2020/12/05 07:58:52;;;;;;;33.67;17.77;;;0.00;99.90;;;;;;4190974;28;20119;-73
2020/12/05 08:00:54;;;;;;;30.45;16.80;;;0.00;99.90;;;;;;4179481;28;20047;-73
2020/12/05 08:03:32;;;;;;;32.65;17.50;;;0.00;99.90;;;;;;4186650;28;20032;-74
2020/12/05 08:05:54;;;;;;;30.20;17.63;;;0.10;99.90;;;;;;4193630;28;20098;-74
2020/12/05 08:08:01;;;;;;;40.58;17.67;;;0.10;99.90;;;;;;4195893;28;20036;-73
2020/12/05 08:10:10;;;;;;;34.10;18.77;;;0.20;99.90;;;;;;4195184;28;20028;-74
2020/12/05 08:12:13;;;;;;;34.20;17.52;;;0.20;99.90;;;;;;4195461;28;20411;-74
2020/12/05 08:14:15;;;;;;;36.03;19.85;;;0.20;99.90;;;;;;4195517;28;20032;-73
2020/12/05 08:16:17;;;;;;;35.55;19.83;;;0.30;99.90;;;;;;4193102;28;20106;-74
2020/12/05 08:18:20;;;;;;;36.80;19.70;;;0.30;99.90;;;;;;4194041;28;20029;-73
2020/12/05 08:20:21;;;;;;;31.88;18.50;;;0.30;99.90;;;;;;4192196;28;20040;-74
2020/12/05 08:22:22;;;;;;;39.63;19.15;;;0.30;99.90;;;;;;4206538;28;20109;-74
2020/12/05 08:24:22;;;;;;;33.78;19.25;;;0.40;99.90;;;;;;4189876;28;20061;-74
2020/12/05 08:26:23;;;;;;;37.30;18.83;;;0.40;99.90;;;;;;4192632;28;20376;-74
2020/12/05 08:28:25;;;;;;;35.88;18.45;;;0.50;99.90;;;;;;4192799;28;20557;-74
2020/12/05 08:30:26;;;;;;;36.50;19.52;;;0.50;99.90;;;;;;4194638;28;20093;-73
2020/12/05 08:32:26;;;;;;;36.88;18.80;;;0.60;99.90;;;;;;4192380;28;20016;-74
2020/12/05 08:34:31;;;;;;;36.72;19.42;;;0.60;99.90;;;;;;4193343;28;20430;-73
2020/12/05 08:36:41;;;;;;;31.23;19.58;;;0.70;99.90;;;;;;4194723;28;20503;-74
2020/12/05 08:38:43;;;;;;;33.83;17.17;;;0.70;99.90;;;;;;4195485;28;20507;-73
2020/12/05 08:40:43;;;;;;;34.33;17.02;;;0.80;99.90;;;;;;4194491;28;20050;-74
2020/12/05 08:42:47;;;;;;;37.03;18.52;;;0.80;99.90;;;;;;4196919;28;20423;-74
2020/12/05 08:44:48;;;;;;;34.78;18.15;;;1.00;99.90;;;;;;4196634;28;20025;-73
2020/12/05 08:47:08;;;;;;;30.40;17.33;;;1.00;99.90;;;;;;4197885;28;20054;-74
2020/12/05 08:49:18;;;;;;;31.88;17.75;;;1.10;99.90;;;;;;4195128;28;20021;-74
2020/12/05 08:51:27;;;;;;;27.58;16.23;;;1.10;99.90;;;;;;4195854;28;20476;-74
2020/12/05 08:53:28;;;;;;;31.80;16.08;;;1.20;99.90;;;;;;4197079;28;20018;-73
2020/12/05 08:55:30;;;;;;;26.73;15.82;;;1.30;99.90;;;;;;4196434;28;20043;-73
2020/12/05 08:57:31;;;;;;;34.85;16.85;;;1.40;99.90;;;;;;4192522;28;20039;-74
2020/12/05 08:59:31;;;;;;;28.08;15.27;;;1.40;99.90;;;;;;4183209;28;20044;-74
2020/12/05 09:01:37;;;;;;;30.13;16.10;;;1.50;99.90;;;;;;4183328;28;20031;-74
2020/12/05 09:03:38;;;;;;;29.17;16.50;;;1.60;99.90;;;;;;4180763;28;20021;-74
2020/12/05 09:05:47;;;;;;;35.38;16.45;;;1.70;99.90;;;;;;4192245;28;20063;-74
2020/12/05 09:07:58;;;;;;;28.48;17.15;;;1.80;99.90;;;;;;4194332;28;20423;-74
2020/12/05 09:09:59;;;;;;;28.55;16.30;;;1.80;99.90;;;;;;4198269;28;20090;-74
2020/12/05 09:12:07;;;;;;;28.25;16.48;;;1.90;99.90;;;;;;4196376;28;20029;-73
2020/12/05 09:14:08;;;;;;;32.10;17.98;;;2.00;99.90;;;;;;4197463;28;20032;-74
2020/12/05 09:16:08;;;;;;;27.75;16.42;;;2.00;99.90;;;;;;4197966;28;20024;-73
2020/12/05 09:18:09;;;;;;;32.58;17.42;;;2.10;99.90;;;;;;4198251;28;20107;-74
2020/12/05 09:20:15;;;;;;;30.63;17.58;;;2.10;99.90;;;;;;4198004;28;20487;-74
2020/12/05 09:22:33;;;;;;;31.90;19.83;;;2.10;99.90;;;;;;4198117;28;20511;-74
2020/12/05 09:24:42;;;;;;;27.52;17.77;;;2.20;99.90;;;;;;4181094;28;20048;-73
2020/12/05 09:26:58;;;;;;;35.78;17.08;;;2.20;99.90;;;;;;4188696;28;20028;-74
2020/12/05 09:29:00;;;;;;;27.80;17.38;;;2.20;99.90;;;;;;4183918;28;20476;-74
2020/12/05 09:31:06;;;;;;;31.75;18.52;;;2.30;99.90;;;;;;4195950;28;20051;-73
2020/12/05 09:33:10;;;;;;;28.38;17.98;;;2.30;99.90;;;;;;4197436;28;20036;-74
2020/12/05 09:35:12;;;;;;;31.67;17.88;;;2.30;99.90;;;;;;4197852;28;20120;-73
2020/12/05 09:37:13;;;;;;;31.20;19.37;;;2.50;99.90;;;;;;4193021;28;20091;-74
2020/12/05 09:39:14;;;;;;;28.27;15.77;;;2.50;99.90;;;;;;4184244;28;20358;-73
2020/12/05 09:41:14;;;;;;;29.15;18.75;;;2.60;99.90;;;;;;4195820;28;20056;-73
2020/12/05 09:43:15;;;;;;;30.38;16.67;;;2.70;99.90;;;;;;4197565;28;20399;-74
2020/12/05 09:45:16;;;;;;;32.80;17.70;;;2.80;99.90;;;;;;4196164;28;20025;-74
2020/12/05 09:47:17;;;;;;;28.65;17.92;;;2.80;99.90;;;;;;4197258;28;20475;-74
2020/12/05 09:49:18;;;;;;;28.35;17.27;;;2.90;99.90;;;;;;4197652;28;20017;-74
2020/12/05 09:51:18;;;;;;;30.15;16.80;;;3.00;99.90;;;;;;4197260;28;20484;-74
2020/12/05 09:53:19;;;;;;;30.90;13.95;;;3.00;99.90;;;;;;4196991;28;20484;-74
2020/12/05 09:55:20;;;;;;;24.17;15.90;;;3.10;99.90;;;;;;4197511;28;20108;-73
2020/12/05 09:57:20;;;;;;;26.20;16.13;;;3.20;99.90;;;;;;4193819;28;20154;-74
2020/12/05 09:59:21;;;;;;;21.17;14.48;;;3.30;99.90;;;;;;4191225;28;20041;-74
2020/12/05 10:01:22;;;;;;;23.45;14.30;;;3.40;99.90;;;;;;4191495;28;20059;-74
2020/12/05 10:03:22;;;;;;;22.20;14.15;;;3.50;99.90;;;;;;4185652;28;20442;-74
2020/12/05 10:05:23;;;;;;;20.55;14.82;;;3.60;99.90;;;;;;4195164;28;20496;-73
2020/12/05 10:07:23;;;;;;;21.15;12.60;;;3.70;99.90;;;;;;4192043;28;20028;-73
2020/12/05 10:09:24;;;;;;;19.00;13.07;;;3.70;99.90;;;;;;4190884;28;20079;-73
2020/12/05 10:11:25;;;;;;;21.75;13.60;;;3.70;99.90;;;;;;4204805;28;20048;-75
2020/12/05 10:13:26;;;;;;;21.98;13.27;;;3.80;99.90;;;;;;4213915;28;20020;-74
2020/12/05 10:15:26;;;;;;;23.98;13.30;;;3.90;99.90;;;;;;4195723;28;20511;-75
2020/12/05 10:17:27;;;;;;;18.73;12.85;;;3.90;99.90;;;;;;4206032;28;20029;-73
2020/12/05 10:19:27;;;;;;;20.35;12.43;;;3.90;99.90;;;;;;4197022;28;20035;-74
2020/12/05 10:21:28;;;;;;;19.95;12.75;;;4.00;99.90;;;;;;4208851;28;20021;-73
2020/12/05 10:23:28;;;;;;;21.02;13.75;;;4.00;99.90;;;;;;4213664;28;20032;-74
2020/12/05 10:25:29;;;;;;;20.17;13.80;;;4.00;99.90;;;;;;4195595;28;20078;-74
2020/12/05 10:27:30;;;;;;;18.30;12.93;;;4.10;99.90;;;;;;4213621;28;20475;-74
2020/12/05 10:29:30;;;;;;;17.10;11.35;;;4.20;99.90;;;;;;4213374;28;20051;-74